CheckWX is a tool to help pilots better visualize weather data.  It is not intended as a substitute for an official pre-flight weather briefing.

03:15:29 UTC

KMCI METAR
Kansas City International Airport
Kansas City, Missouri, USA
Current

22 mins ago

KMCI 230253Z 35007KT 10SM FEW240 19/14 A3018 RMK AO2 SLP213 T01890144 53010
Observed
Jul-23 @ 02:53 UTC
Wind
  • 350° at 7 KTS
Visibility
10 SM
Flight Rules
VFR
Cloud Levels
  • Few at 24,000' AGL
Temperature
19°C / 66°F
Dewpoint
14°C / 57°F
Humidity
73%
Altimeter
30.18" Hg
Pressure
1022.02 hPa
Previous

1 hour ago

KMCI 230153Z 36007KT 10SM FEW140 19/14 A3017 RMK AO2 SLP208 T01940144
Observed
Jul-23 @ 01:53 UTC
Wind
  • 360° at 7 KTS
Visibility
10 SM
Flight Rules
VFR
Cloud Levels
  • Few at 14,000' AGL
Temperature
19°C / 66°F
Dewpoint
14°C / 57°F
Humidity
73%
Altimeter
30.17" Hg
Pressure
1021.72 hPa
Previous

2 hours ago

KMCI 230053Z 01009KT 10SM FEW090 FEW240 23/14 A3016 RMK AO2 SLP205 T02330139
Observed
Jul-23 @ 00:53 UTC
Wind
  • 010° at 9 KTS
Visibility
10 SM
Flight Rules
VFR
Cloud Levels
  • Few at 9,000' AGL
  • Few at 24,000' AGL
Temperature
23°C / 73°F
Dewpoint
14°C / 57°F
Humidity
57%
Altimeter
30.16" Hg
Pressure
1021.32 hPa